14 Oct 2019 22:36 UTC 2019287+22:36 UTC

Overview Datums Bench Marks Data Query Site Visit Daily QC Messages Attributes

042: Nueces Delta 2

27° 53' 19" N   97° 34' 10" W
NUDE2
The Coastal Bend Bays & Estuaries Program Coastal Bend Bays and Estuaries Program

Station Information

Nueces Delta 2
Nueces Delta 2
more pictures
 
Station Name:Nueces Delta 2
DNR ID:042
Location:27° 53' 19" N, 97° 34' 10" W

Water Level Forecasts

Latest Observations

Series Metric English Marine Observed at
Water Temperature 27.3 °C 81.1 °F 81.1 °F Oct 14 17:24 CDT
00h07m ago
Salinity 16.700 psu 16.700 psu 16.700 psu Oct 14 17:24 CDT
00h07m ago

Maps

Nueces Delta 2
All Stations in Area
Entire Network
 

Recent Observations

Date/Time Water
Temp (°F)
Sal (psu)
Oct 14 17:00 CDT 81.1 16.600
Oct 14 16:00 CDT 81.0 16.600
Oct 14 15:00 CDT 80.1 16.100
Oct 14 14:00 CDT 77.5 12.400
Oct 14 13:00 CDT 75.2 13.700
Oct 14 12:00 CDT 74.1 15.200
Oct 14 11:00 CDT 73.0 16.200
Oct 14 10:00 CDT 72.1 16.100
Oct 14 09:00 CDT 71.6 15.800
Oct 14 08:00 CDT 71.4 15.100
Oct 14 07:00 CDT 71.6 15.700
Oct 14 06:00 CDT 71.4 15.100
Oct 14 05:00 CDT 71.4 15.000
Oct 14 04:00 CDT 71.2 14.200
Oct 14 03:00 CDT 71.1 9.200
Oct 14 02:00 CDT 70.9 11.400
Oct 14 01:00 CDT 70.7 10.800
Oct 14 00:00 CDT 70.7 10.900
Oct 13 23:00 CDT 70.7 10.600
Oct 13 22:00 CDT 70.7 10.600
Oct 13 21:00 CDT 70.5 10.200
Oct 13 20:00 CDT 70.5 9.900
Oct 13 19:00 CDT 70.5 10.200
Oct 13 18:00 CDT 70.3 10.500
Oct 13 17:00 CDT 70.2 9.700

Historical Data Availability